sensor_id;sensor_type;location;lat;lon;timestamp;pressure;altitude;pressure_sealevel;temperature;humidity
44825;BME280;30542;47.928;2.138;2023-07-31T00:04:37;100503.97;;;24.22;46.19
44825;BME280;30542;47.928;2.138;2023-07-31T00:09:37;100498.59;;;24.22;46.30
44825;BME280;30542;47.928;2.138;2023-07-31T00:14:37;100498.59;;;24.22;46.44
44825;BME280;30542;47.928;2.138;2023-07-31T00:19:38;100480.09;;;24.16;46.24
44825;BME280;30542;47.928;2.138;2023-07-31T00:24:38;100488.63;;;24.23;46.11
44825;BME280;30542;47.928;2.138;2023-07-31T00:29:38;100482.44;;;24.22;46.25
44825;BME280;30542;47.928;2.138;2023-07-31T00:34:38;100479.75;;;24.22;46.40
44825;BME280;30542;47.928;2.138;2023-07-31T00:39:39;100479.75;;;24.22;46.26
44825;BME280;30542;47.928;2.138;2023-07-31T00:44:39;100471.38;;;24.24;46.50
44825;BME280;30542;47.928;2.138;2023-07-31T00:49:39;100480.25;;;24.24;46.61
44825;BME280;30542;47.928;2.138;2023-07-31T00:54:40;100481.03;;;24.25;46.65
44825;BME280;30542;47.928;2.138;2023-07-31T00:59:40;100478.34;;;24.25;46.85
44825;BME280;30542;47.928;2.138;2023-07-31T01:04:42;100470.00;;;24.26;46.75
44825;BME280;30542;47.928;2.138;2023-07-31T01:10:07;100469.19;;;24.26;46.77
44825;BME280;30542;47.928;2.138;2023-07-31T01:15:10;100467.59;;;24.25;46.87
44825;BME280;30542;47.928;2.138;2023-07-31T01:20:18;100472.19;;;24.24;47.00
44825;BME280;30542;47.928;2.138;2023-07-31T01:25:46;100471.38;;;24.24;47.08
44825;BME280;30542;47.928;2.138;2023-07-31T01:30:48;100466.00;;;24.24;46.93
44825;BME280;30542;47.928;2.138;2023-07-31T01:35:48;100463.31;;;24.24;46.96
44825;BME280;30542;47.928;2.138;2023-07-31T01:40:52;100463.31;;;24.24;47.17
44825;BME280;30542;47.928;2.138;2023-07-31T01:45:53;100469.19;;;24.26;47.73
44825;BME280;30542;47.928;2.138;2023-07-31T01:50:54;100458.50;;;24.21;48.44
44825;BME280;30542;47.928;2.138;2023-07-31T01:55:54;100458.78;;;24.19;48.66
44825;BME280;30542;47.928;2.138;2023-07-31T02:00:54;100447.94;;;24.24;49.06
44825;BME280;30542;47.928;2.138;2023-07-31T02:05:55;100442.56;;;24.24;49.26
44825;BME280;30542;47.928;2.138;2023-07-31T02:10:55;100454.44;;;24.23;49.43
44825;BME280;30542;47.928;2.138;2023-07-31T02:15:56;100448.25;;;24.23;49.38
44825;BME280;30542;47.928;2.138;2023-07-31T02:20:57;100435.84;;;24.22;49.43
44825;BME280;30542;47.928;2.138;2023-07-31T02:25:57;100434.25;;;24.21;49.39
44825;BME280;30542;47.928;2.138;2023-07-31T02:30:57;100422.69;;;24.20;49.24
44825;BME280;30542;47.928;2.138;2023-07-31T02:35:58;100446.13;;;24.20;49.33
44825;BME280;30542;47.928;2.138;2023-07-31T02:40:58;100448.81;;;24.20;49.09
44825;BME280;30542;47.928;2.138;2023-07-31T02:45:59;100435.38;;;24.20;49.21
44825;BME280;30542;47.928;2.138;2023-07-31T02:51:00;100438.84;;;24.20;49.10
44825;BME280;30542;47.928;2.138;2023-07-31T02:56:00;100439.66;;;24.21;48.99
44825;BME280;30542;47.928;2.138;2023-07-31T03:01:00;100424.28;;;24.21;48.96
44825;BME280;30542;47.928;2.138;2023-07-31T03:06:01;100401.97;;;24.21;48.84
44825;BME280;30542;47.928;2.138;2023-07-31T03:11:01;100408.44;;;24.20;48.68
44825;BME280;30542;47.928;2.138;2023-07-31T03:16:01;100404.16;;;24.19;48.71
44825;BME280;30542;47.928;2.138;2023-07-31T03:21:02;100388.28;;;24.17;48.72
44825;BME280;30542;47.928;2.138;2023-07-31T03:26:07;100394.75;;;24.16;48.45
44825;BME280;30542;47.928;2.138;2023-07-31T03:31:07;100400.16;;;24.16;48.49
44825;BME280;30542;47.928;2.138;2023-07-31T03:36:08;100396.16;;;24.14;48.46
44825;BME280;30542;47.928;2.138;2023-07-31T03:41:08;100395.88;;;24.15;48.27
44825;BME280;30542;47.928;2.138;2023-07-31T03:46:10;100406.94;;;24.14;48.16
44825;BME280;30542;47.928;2.138;2023-07-31T03:51:11;100406.09;;;24.13;48.32
44825;BME280;30542;47.928;2.138;2023-07-31T03:56:11;100403.41;;;24.13;48.27
44825;BME280;30542;47.928;2.138;2023-07-31T04:01:11;100399.91;;;24.13;48.17
44825;BME280;30542;47.928;2.138;2023-07-31T04:06:12;100394.03;;;24.11;48.19
44825;BME280;30542;47.928;2.138;2023-07-31T04:11:12;100400.72;;;24.13;48.15
44825;BME280;30542;47.928;2.138;2023-07-31T04:16:12;100380.59;;;24.11;48.11
44825;BME280;30542;47.928;2.138;2023-07-31T04:21:13;100387.88;;;24.10;47.96
44825;BME280;30542;47.928;2.138;2023-07-31T04:26:13;100373.63;;;24.10;47.77
44825;BME280;30542;47.928;2.138;2023-07-31T04:31:13;100375.47;;;24.09;48.02
44825;BME280;30542;47.928;2.138;2023-07-31T04:36:14;100382.25;;;24.06;47.64
44825;BME280;30542;47.928;2.138;2023-07-31T04:41:14;100377.38;;;24.09;47.87
44825;BME280;30542;47.928;2.138;2023-07-31T04:46:14;100386.53;;;24.08;47.30
44825;BME280;30542;47.928;2.138;2023-07-31T04:51:15;100382.75;;;24.09;47.44
44825;BME280;30542;47.928;2.138;2023-07-31T04:56:15;100376.88;;;24.06;47.54
44825;BME280;30542;47.928;2.138;2023-07-31T05:01:16;100365.00;;;24.08;47.44
44825;BME280;30542;47.928;2.138;2023-07-31T05:06:16;100374.19;;;24.06;47.04
44825;BME280;30542;47.928;2.138;2023-07-31T05:11:17;100368.28;;;24.04;47.28
44825;BME280;30542;47.928;2.138;2023-07-31T05:16:17;100376.34;;;24.04;47.26
44825;BME280;30542;47.928;2.138;2023-07-31T05:21:17;100372.06;;;24.03;47.28
44825;BME280;30542;47.928;2.138;2023-07-31T05:26:18;100381.72;;;24.04;47.11
44825;BME280;30542;47.928;2.138;2023-07-31T05:31:18;100371.28;;;24.03;47.25
44825;BME280;30542;47.928;2.138;2023-07-31T05:36:18;100381.22;;;24.02;47.16
44825;BME280;30542;47.928;2.138;2023-07-31T05:41:19;100373.16;;;24.02;47.17
44825;BME280;30542;47.928;2.138;2023-07-31T05:46:19;100369.69;;;24.02;47.21
44825;BME280;30542;47.928;2.138;2023-07-31T05:51:19;100382.59;;;24.00;47.24
44825;BME280;30542;47.928;2.138;2023-07-31T05:56:20;100382.59;;;24.00;47.03
44825;BME280;30542;47.928;2.138;2023-07-31T06:01:20;100386.09;;;24.00;47.01
44825;BME280;30542;47.928;2.138;2023-07-31T06:06:21;100378.00;;;24.00;47.09
44825;BME280;30542;47.928;2.138;2023-07-31T06:11:21;100369.16;;;24.00;46.97
44825;BME280;30542;47.928;2.138;2023-07-31T06:16:22;100368.34;;;23.99;46.98
44825;BME280;30542;47.928;2.138;2023-07-31T06:21:23;100372.94;;;23.99;46.95
44825;BME280;30542;47.928;2.138;2023-07-31T06:26:23;100370.25;;;23.99;46.98
44825;BME280;30542;47.928;2.138;2023-07-31T06:31:23;100382.09;;;23.98;46.92
44825;BME280;30542;47.928;2.138;2023-07-31T06:36:24;100377.53;;;23.98;46.94
44825;BME280;30542;47.928;2.138;2023-07-31T06:41:24;100365.16;;;23.97;47.15
44825;BME280;30542;47.928;2.138;2023-07-31T06:46:24;100369.94;;;24.00;46.94
44825;BME280;30542;47.928;2.138;2023-07-31T06:51:25;100364.56;;;24.00;46.93
44825;BME280;30542;47.928;2.138;2023-07-31T06:56:25;100350.31;;;24.00;47.00
44825;BME280;30542;47.928;2.138;2023-07-31T07:01:26;100350.63;;;23.98;47.16
44825;BME280;30542;47.928;2.138;2023-07-31T07:06:27;100343.13;;;23.95;47.46
44825;BME280;30542;47.928;2.138;2023-07-31T07:11:28;100342.66;;;23.88;47.69
44825;BME280;30542;47.928;2.138;2023-07-31T07:16:28;100350.56;;;23.79;47.74
44825;BME280;30542;47.928;2.138;2023-07-31T07:21:29;100346.28;;;23.78;47.92
44825;BME280;30542;47.928;2.138;2023-07-31T07:26:29;100345.63;;;23.68;48.14
44825;BME280;30542;47.928;2.138;2023-07-31T07:31:29;100349.69;;;23.65;48.06
44825;BME280;30542;47.928;2.138;2023-07-31T07:36:30;100341.66;;;23.60;48.30
44825;BME280;30542;47.928;2.138;2023-07-31T07:41:32;100348.09;;;23.59;48.37
44825;BME280;30542;47.928;2.138;2023-07-31T07:46:32;100355.06;;;23.65;48.57
44825;BME280;30542;47.928;2.138;2023-07-31T07:51:33;100337.50;;;23.73;48.18
44825;BME280;30542;47.928;2.138;2023-07-31T07:56:33;100330.22;;;23.73;47.88
44825;BME280;30542;47.928;2.138;2023-07-31T08:01:33;100326.53;;;23.69;48.00
44825;BME280;30542;47.928;2.138;2023-07-31T08:06:34;100310.47;;;23.59;48.54
44825;BME280;30542;47.928;2.138;2023-07-31T08:11:34;100296.22;;;23.40;50.19
44825;BME280;30542;47.928;2.138;2023-07-31T08:16:35;100297.53;;;23.18;51.04
44825;BME280;30542;47.928;2.138;2023-07-31T08:21:35;100296.81;;;23.07;50.87
44825;BME280;30542;47.928;2.138;2023-07-31T08:26:35;100306.25;;;23.29;50.76
44825;BME280;30542;47.928;2.138;2023-07-31T08:31:36;100295.59;;;23.43;50.15
44825;BME280;30542;47.928;2.138;2023-07-31T08:36:36;100287.72;;;23.51;49.56
44825;BME280;30542;47.928;2.138;2023-07-31T08:41:38;100287.13;;;23.54;49.13
44825;BME280;30542;47.928;2.138;2023-07-31T08:46:39;100297.88;;;23.54;48.55
44825;BME280;30542;47.928;2.138;2023-07-31T08:51:41;100308.66;;;23.54;48.07
44825;BME280;30542;47.928;2.138;2023-07-31T08:56:42;100307.53;;;23.55;47.90
44825;BME280;30542;47.928;2.138;2023-07-31T09:01:50;100325.81;;;23.58;47.98
44825;BME280;30542;47.928;2.138;2023-07-31T09:06:57;100302.13;;;23.61;47.74
44825;BME280;30542;47.928;2.138;2023-07-31T09:12:00;100299.44;;;23.61;47.76
44825;BME280;30542;47.928;2.138;2023-07-31T09:17:01;100290.78;;;23.64;47.54
44825;BME280;30542;47.928;2.138;2023-07-31T09:22:01;100285.47;;;23.58;47.43
44825;BME280;30542;47.928;2.138;2023-07-31T09:27:02;100287.84;;;23.65;47.30
44825;BME280;30542;47.928;2.138;2023-07-31T09:32:02;100295.63;;;23.67;47.17
44825;BME280;30542;47.928;2.138;2023-07-31T09:37:04;100282.69;;;23.69;47.20
44825;BME280;30542;47.928;2.138;2023-07-31T09:42:05;100271.63;;;23.70;48.15
44825;BME280;30542;47.928;2.138;2023-07-31T09:47:05;100283.13;;;23.76;49.54
44825;BME280;30542;47.928;2.138;2023-07-31T09:52:11;100281.25;;;23.76;49.79
44825;BME280;30542;47.928;2.138;2023-07-31T09:57:12;100290.16;;;23.72;49.32
44825;BME280;30542;47.928;2.138;2023-07-31T10:02:15;100271.13;;;23.68;49.27
44825;BME280;30542;47.928;2.138;2023-07-31T10:07:18;100262.78;;;23.70;48.78
44825;BME280;30542;47.928;2.138;2023-07-31T10:12:22;100250.69;;;23.67;48.13
44825;BME280;30542;47.928;2.138;2023-07-31T10:17:23;100238.63;;;23.65;47.94
44825;BME280;30542;47.928;2.138;2023-07-31T10:22:23;100236.19;;;23.63;48.04
44825;BME280;30542;47.928;2.138;2023-07-31T10:27:25;100221.69;;;23.64;48.01
44825;BME280;30542;47.928;2.138;2023-07-31T10:32:26;100224.09;;;23.66;48.10
44825;BME280;30542;47.928;2.138;2023-07-31T10:37:29;100213.41;;;23.61;48.02
44825;BME280;30542;47.928;2.138;2023-07-31T10:47:30;100199.09;;;23.65;47.79
44825;BME280;30542;47.928;2.138;2023-07-31T10:52:34;100201.78;;;23.65;47.75
44825;BME280;30542;47.928;2.138;2023-07-31T10:57:35;100191.75;;;23.71;47.55
44825;BME280;30542;47.928;2.138;2023-07-31T11:02:35;100182.31;;;23.73;47.57
44825;BME280;30542;47.928;2.138;2023-07-31T11:07:48;100172.84;;;23.76;47.68
44825;BME280;30542;47.928;2.138;2023-07-31T11:12:49;100179.75;;;23.82;47.46
44825;BME280;30542;47.928;2.138;2023-07-31T11:17:49;100173.19;;;23.88;47.14
44825;BME280;30542;47.928;2.138;2023-07-31T11:22:50;100160.25;;;23.90;47.21
44825;BME280;30542;47.928;2.138;2023-07-31T11:27:50;100170.44;;;23.93;47.21
44825;BME280;30542;47.928;2.138;2023-07-31T11:32:55;100162.88;;;23.95;47.10
44825;BME280;30542;47.928;2.138;2023-07-31T11:37:55;100167.44;;;23.95;46.86
44825;BME280;30542;47.928;2.138;2023-07-31T11:42:57;100151.09;;;23.91;46.87
44825;BME280;30542;47.928;2.138;2023-07-31T11:47:57;100136.06;;;23.90;46.94
44825;BME280;30542;47.928;2.138;2023-07-31T11:53:00;100155.47;;;23.87;47.18
44825;BME280;30542;47.928;2.138;2023-07-31T11:58:02;100147.91;;;23.89;47.13
44825;BME280;30542;47.928;2.138;2023-07-31T12:03:02;100128.75;;;23.77;47.36
44825;BME280;30542;47.928;2.138;2023-07-31T12:08:09;100147.81;;;23.94;47.72
44825;BME280;30542;47.928;2.138;2023-07-31T12:13:12;100130.09;;;23.93;47.61
44825;BME280;30542;47.928;2.138;2023-07-31T12:18:20;100113.34;;;23.96;47.81
44825;BME280;30542;47.928;2.138;2023-07-31T12:23:25;100118.66;;;24.01;47.88
44825;BME280;30542;47.928;2.138;2023-07-31T12:28:29;100117.56;;;24.02;48.00
44825;BME280;30542;47.928;2.138;2023-07-31T12:33:34;100103.00;;;24.03;47.96
44825;BME280;30542;47.928;2.138;2023-07-31T12:38:35;100096.53;;;24.04;48.15
44825;BME280;30542;47.928;2.138;2023-07-31T12:43:36;100093.44;;;24.11;48.23
44825;BME280;30542;47.928;2.138;2023-07-31T12:48:38;100099.03;;;24.15;48.04
44825;BME280;30542;47.928;2.138;2023-07-31T12:53:39;100097.34;;;24.19;47.90
44825;BME280;30542;47.928;2.138;2023-07-31T12:58:39;100095.16;;;24.21;47.92
44825;BME280;30542;47.928;2.138;2023-07-31T13:03:39;100071.44;;;24.23;47.80
44825;BME280;30542;47.928;2.138;2023-07-31T13:08:40;100066.34;;;24.21;47.56
44825;BME280;30542;47.928;2.138;2023-07-31T13:13:41;100057.19;;;24.22;47.35
44825;BME280;30542;47.928;2.138;2023-07-31T13:18:41;100043.13;;;24.25;47.54
44825;BME280;30542;47.928;2.138;2023-07-31T13:23:42;100022.69;;;24.24;47.52
44825;BME280;30542;47.928;2.138;2023-07-31T13:28:42;100027.28;;;24.24;47.50
44825;BME280;30542;47.928;2.138;2023-07-31T13:33:42;100010.81;;;24.25;47.29
44825;BME280;30542;47.928;2.138;2023-07-31T13:38:42;100003.84;;;24.24;47.35
44825;BME280;30542;47.928;2.138;2023-07-31T13:43:43;99968.88;;;24.11;47.39
44825;BME280;30542;47.928;2.138;2023-07-31T13:48:43;99994.88;;;24.29;47.54
44825;BME280;30542;47.928;2.138;2023-07-31T13:53:43;100003.66;;;24.35;47.48
44825;BME280;30542;47.928;2.138;2023-07-31T13:58:44;99995.28;;;24.36;47.49
44825;BME280;30542;47.928;2.138;2023-07-31T14:03:44;99984.94;;;24.43;47.25
44825;BME280;30542;47.928;2.138;2023-07-31T14:08:44;99988.00;;;24.50;46.94
44825;BME280;30542;47.928;2.138;2023-07-31T14:13:45;99976.16;;;24.51;46.89
44825;BME280;30542;47.928;2.138;2023-07-31T14:18:45;99958.38;;;24.50;46.88
44825;BME280;30542;47.928;2.138;2023-07-31T14:23:46;99951.09;;;24.51;46.93
44825;BME280;30542;47.928;2.138;2023-07-31T14:28:46;99960.00;;;24.51;47.03
44825;BME280;30542;47.928;2.138;2023-07-31T14:33:46;99953.00;;;24.50;46.91
44825;BME280;30542;47.928;2.138;2023-07-31T14:38:47;99961.84;;;24.51;47.34
44825;BME280;30542;47.928;2.138;2023-07-31T14:43:47;99951.41;;;24.49;47.10
44825;BME280;30542;47.928;2.138;2023-07-31T14:48:47;99947.91;;;24.49;47.21
44825;BME280;30542;47.928;2.138;2023-07-31T14:53:48;99941.75;;;24.48;47.18
44825;BME280;30542;47.928;2.138;2023-07-31T14:58:48;99933.66;;;24.48;47.18
44825;BME280;30542;47.928;2.138;2023-07-31T15:03:48;99931.88;;;24.44;47.23
44825;BME280;30542;47.928;2.138;2023-07-31T15:08:49;99929.38;;;24.47;47.33
44825;BME280;30542;47.928;2.138;2023-07-31T15:13:49;99937.47;;;24.47;47.41
44825;BME280;30542;47.928;2.138;2023-07-31T15:18:49;99932.88;;;24.48;47.46
44825;BME280;30542;47.928;2.138;2023-07-31T15:23:49;99920.50;;;24.47;47.34
44825;BME280;30542;47.928;2.138;2023-07-31T15:28:57;99924.78;;;24.48;47.50
44825;BME280;30542;47.928;2.138;2023-07-31T15:34:00;99922.09;;;24.48;47.38
44825;BME280;30542;47.928;2.138;2023-07-31T15:39:00;99909.75;;;24.47;47.50
44825;BME280;30542;47.928;2.138;2023-07-31T15:44:01;99915.13;;;24.47;47.43
44825;BME280;30542;47.928;2.138;2023-07-31T15:49:01;99910.53;;;24.47;47.50
44825;BME280;30542;47.928;2.138;2023-07-31T15:54:01;99902.47;;;24.47;47.55
44825;BME280;30542;47.928;2.138;2023-07-31T15:59:02;99900.56;;;24.48;47.62
44825;BME280;30542;47.928;2.138;2023-07-31T16:04:03;99881.72;;;24.48;47.62
44825;BME280;30542;47.928;2.138;2023-07-31T16:09:03;99871.75;;;24.48;47.56
44825;BME280;30542;47.928;2.138;2023-07-31T16:14:03;99864.78;;;24.47;47.45
44825;BME280;30542;47.928;2.138;2023-07-31T16:19:04;99858.28;;;24.48;47.56
44825;BME280;30542;47.928;2.138;2023-07-31T16:24:04;99842.13;;;24.48;47.62
44825;BME280;30542;47.928;2.138;2023-07-31T16:29:04;99838.00;;;24.51;47.66
44825;BME280;30542;47.928;2.138;2023-07-31T16:34:05;99827.56;;;24.49;47.81
44825;BME280;30542;47.928;2.138;2023-07-31T16:39:05;99811.91;;;24.51;47.85
44825;BME280;30542;47.928;2.138;2023-07-31T16:44:05;99807.31;;;24.52;47.86
44825;BME280;30542;47.928;2.138;2023-07-31T16:49:06;99804.00;;;24.55;47.81
44825;BME280;30542;47.928;2.138;2023-07-31T16:54:06;99784.34;;;24.54;47.79
44825;BME280;30542;47.928;2.138;2023-07-31T16:59:06;99782.94;;;24.57;47.84
44825;BME280;30542;47.928;2.138;2023-07-31T17:04:08;99782.63;;;24.59;47.80
44825;BME280;30542;47.928;2.138;2023-07-31T17:09:09;99744.03;;;24.41;47.60
44825;BME280;30542;47.928;2.138;2023-07-31T17:14:09;99791.59;;;24.68;47.42
44825;BME280;30542;47.928;2.138;2023-07-31T17:19:09;99778.59;;;24.70;47.13
44825;BME280;30542;47.928;2.138;2023-07-31T17:24:09;99788.25;;;24.71;47.13
44825;BME280;30542;47.928;2.138;2023-07-31T17:29:13;99773.69;;;24.72;47.25
44825;BME280;30542;47.928;2.138;2023-07-31T17:34:15;99794.94;;;24.73;47.18
44825;BME280;30542;47.928;2.138;2023-07-31T17:39:15;99795.72;;;24.74;47.27
44825;BME280;30542;47.928;2.138;2023-07-31T17:44:15;99799.53;;;24.73;47.27
44825;BME280;30542;47.928;2.138;2023-07-31T17:49:16;99790.66;;;24.72;47.32
44825;BME280;30542;47.928;2.138;2023-07-31T17:54:16;99791.72;;;24.71;47.47
44825;BME280;30542;47.928;2.138;2023-07-31T17:59:16;99766.22;;;24.69;47.53
44825;BME280;30542;47.928;2.138;2023-07-31T18:04:17;99756.25;;;24.69;48.08
44825;BME280;30542;47.928;2.138;2023-07-31T18:09:17;99757.84;;;24.70;48.45
44825;BME280;30542;47.928;2.138;2023-07-31T18:14:18;99757.53;;;24.72;49.50
44825;BME280;30542;47.928;2.138;2023-07-31T18:19:21;99741.25;;;24.77;50.13
44825;BME280;30542;47.928;2.138;2023-07-31T18:24:21;99738.72;;;24.80;50.55
44825;BME280;30542;47.928;2.138;2023-07-31T18:29:23;99726.06;;;24.81;50.36
44825;BME280;30542;47.928;2.138;2023-07-31T18:34:24;99725.56;;;24.79;50.26
44825;BME280;30542;47.928;2.138;2023-07-31T18:39:24;99728.25;;;24.79;50.32
44825;BME280;30542;47.928;2.138;2023-07-31T18:44:24;99707.50;;;24.79;50.12
44825;BME280;30542;47.928;2.138;2023-07-31T18:49:25;99699.72;;;24.78;50.12
44825;BME280;30542;47.928;2.138;2023-07-31T18:54:25;99687.84;;;24.79;49.98
44825;BME280;30542;47.928;2.138;2023-07-31T18:59:25;99693.22;;;24.79;50.06
44825;BME280;30542;47.928;2.138;2023-07-31T19:04:26;99674.38;;;24.79;49.91
44825;BME280;30542;47.928;2.138;2023-07-31T19:09:28;99680.56;;;24.79;49.77
44825;BME280;30542;47.928;2.138;2023-07-31T19:14:29;99695.47;;;24.77;50.19
44825;BME280;30542;47.928;2.138;2023-07-31T19:19:29;99677.81;;;24.71;50.08
44825;BME280;30542;47.928;2.138;2023-07-31T19:24:29;99680.06;;;24.69;49.84
44825;BME280;30542;47.928;2.138;2023-07-31T19:29:30;99690.03;;;24.68;49.79
44825;BME280;30542;47.928;2.138;2023-07-31T19:34:31;99681.47;;;24.66;49.54
44825;BME280;30542;47.928;2.138;2023-07-31T19:39:31;99680.66;;;24.66;49.47
44825;BME280;30542;47.928;2.138;2023-07-31T19:44:34;99693.03;;;24.67;49.42
44825;BME280;30542;47.928;2.138;2023-07-31T19:49:34;99692.22;;;24.66;49.49
44825;BME280;30542;47.928;2.138;2023-07-31T19:54:35;99690.31;;;24.67;49.25
44825;BME280;30542;47.928;2.138;2023-07-31T19:59:35;99687.16;;;24.65;49.02
44825;BME280;30542;47.928;2.138;2023-07-31T20:04:35;99685.25;;;24.65;49.12
44825;BME280;30542;47.928;2.138;2023-07-31T20:09:36;99675.91;;;24.63;48.84
44825;BME280;30542;47.928;2.138;2023-07-31T20:14:36;99664.50;;;24.66;49.09
44825;BME280;30542;47.928;2.138;2023-07-31T20:19:36;99671.00;;;24.65;48.99
44825;BME280;30542;47.928;2.138;2023-07-31T20:24:36;99669.91;;;24.66;48.85
44825;BME280;30542;47.928;2.138;2023-07-31T20:29:37;99669.91;;;24.66;49.02
44825;BME280;30542;47.928;2.138;2023-07-31T20:34:40;99665.63;;;24.65;48.91
44825;BME280;30542;47.928;2.138;2023-07-31T20:39:40;99662.13;;;24.64;48.98
44825;BME280;30542;47.928;2.138;2023-07-31T20:44:41;99652.16;;;24.65;49.04
44825;BME280;30542;47.928;2.138;2023-07-31T20:49:41;99651.53;;;24.68;48.79
44825;BME280;30542;47.928;2.138;2023-07-31T20:54:42;99636.00;;;24.65;48.88
44825;BME280;30542;47.928;2.138;2023-07-31T20:59:42;99636.97;;;24.69;48.77
44825;BME280;30542;47.928;2.138;2023-07-31T21:04:42;99637.94;;;24.73;48.64
44825;BME280;30542;47.928;2.138;2023-07-31T21:09:43;99641.75;;;24.72;48.47
44825;BME280;30542;47.928;2.138;2023-07-31T21:14:44;99649.31;;;24.70;48.63
44825;BME280;30542;47.928;2.138;2023-07-31T21:19:45;99642.34;;;24.69;48.67
44825;BME280;30542;47.928;2.138;2023-07-31T21:24:45;99653.41;;;24.67;48.65
44825;BME280;30542;47.928;2.138;2023-07-31T21:29:45;99648.34;;;24.66;48.70
44825;BME280;30542;47.928;2.138;2023-07-31T21:34:46;99646.28;;;24.63;48.70
44825;BME280;30542;47.928;2.138;2023-07-31T21:39:46;99626.03;;;24.65;48.69
44825;BME280;30542;47.928;2.138;2023-07-31T21:44:47;99622.84;;;24.63;48.79
44825;BME280;30542;47.928;2.138;2023-07-31T21:49:47;99599.88;;;24.66;48.88
44825;BME280;30542;47.928;2.138;2023-07-31T21:54:47;99591.34;;;24.64;48.90
44825;BME280;30542;47.928;2.138;2023-07-31T21:59:47;99586.75;;;24.64;48.91
44825;BME280;30542;47.928;2.138;2023-07-31T22:04:48;99578.97;;;24.63;48.87
44825;BME280;30542;47.928;2.138;2023-07-31T22:09:48;99580.56;;;24.64;48.91
44825;BME280;30542;47.928;2.138;2023-07-31T22:14:49;99562.81;;;24.63;48.85
44825;BME280;30542;47.928;2.138;2023-07-31T22:19:49;99564.41;;;24.64;48.90
44825;BME280;30542;47.928;2.138;2023-07-31T22:24:49;99546.66;;;24.63;48.88
44825;BME280;30542;47.928;2.138;2023-07-31T22:29:50;99542.06;;;24.63;48.91
44825;BME280;30542;47.928;2.138;2023-07-31T22:34:50;99529.69;;;24.62;48.94
44825;BME280;30542;47.928;2.138;2023-07-31T22:39:50;99538.28;;;24.64;49.04
44825;BME280;30542;47.928;2.138;2023-07-31T22:44:51;99533.19;;;24.63;49.20
44825;BME280;30542;47.928;2.138;2023-07-31T22:49:51;99528.59;;;24.63;48.91
44825;BME280;30542;47.928;2.138;2023-07-31T22:54:51;99522.41;;;24.63;49.02
44825;BME280;30542;47.928;2.138;2023-07-31T22:59:52;99519.44;;;24.64;49.04
44825;BME280;30542;47.928;2.138;2023-07-31T23:04:53;99518.13;;;24.62;49.15
44825;BME280;30542;47.928;2.138;2023-07-31T23:09:53;99516.72;;;24.64;49.11
44825;BME280;30542;47.928;2.138;2023-07-31T23:14:55;99507.88;;;24.64;49.12
44825;BME280;30542;47.928;2.138;2023-07-31T23:19:55;99491.72;;;24.64;49.07
44825;BME280;30542;47.928;2.138;2023-07-31T23:24:56;99504.34;;;24.63;49.14
44825;BME280;30542;47.928;2.138;2023-07-31T23:29:56;99496.28;;;24.63;49.12
44825;BME280;30542;47.928;2.138;2023-07-31T23:34:56;99489.00;;;24.64;49.25
44825;BME280;30542;47.928;2.138;2023-07-31T23:39:57;99488.19;;;24.63;49.20
44825;BME280;30542;47.928;2.138;2023-07-31T23:44:58;99492.78;;;24.63;49.37
44825;BME280;30542;47.928;2.138;2023-07-31T23:49:58;99488.19;;;24.63;49.31
44825;BME280;30542;47.928;2.138;2023-07-31T23:54:58;99472.84;;;24.64;49.34
44825;BME280;30542;47.928;2.138;2023-07-31T23:59:59;99466.66;;;24.63;49.51
